createdAt,value
2022-08-14T00:00:14.654Z,19.85
2022-08-14T00:03:04.284Z,19.75
2022-08-14T00:05:35.743Z,19.72
2022-08-14T00:08:05.548Z,19.65
2022-08-14T00:10:51.586Z,19.58
2022-08-14T00:13:29.212Z,19.53
2022-08-14T00:16:02.216Z,19.51
2022-08-14T00:19:06.456Z,19.49
2022-08-14T00:21:28.397Z,19.46
2022-08-14T00:24:02.530Z,19.41
2022-08-14T00:26:33.069Z,19.39
2022-08-14T00:29:04.558Z,19.37
2022-08-14T00:31:44.434Z,19.37
2022-08-14T00:34:36.141Z,19.36
2022-08-14T00:37:08.095Z,19.35
2022-08-14T00:39:42.592Z,19.38
2022-08-14T00:42:52.357Z,19.38
2022-08-14T00:45:04.130Z,19.40
2022-08-14T00:47:43.022Z,19.42
2022-08-14T00:50:21.939Z,19.45
2022-08-14T00:52:53.411Z,19.49
2022-08-14T00:55:24.363Z,19.51
2022-08-14T00:58:13.362Z,19.54
2022-08-14T01:00:51.110Z,19.56
2022-08-14T01:03:23.400Z,19.58
2022-08-14T01:05:56.425Z,19.61
2022-08-14T01:08:51.979Z,19.61
2022-08-14T01:11:24.318Z,19.60
2022-08-14T01:14:01.439Z,19.58
2022-08-14T01:16:34.991Z,19.58
2022-08-14T01:19:27.476Z,19.59
2022-08-14T01:21:57.851Z,19.58
2022-08-14T01:24:36.063Z,19.54
2022-08-14T01:27:07.061Z,19.54
2022-08-14T01:29:58.698Z,19.53
2022-08-14T01:32:37.620Z,19.53
2022-08-14T01:36:02.683Z,19.52
2022-08-14T01:38:06.018Z,19.52
2022-08-14T01:40:41.877Z,19.52
2022-08-14T01:43:18.565Z,19.50
2022-08-14T01:45:57.443Z,19.53
2022-08-14T01:48:44.777Z,19.56
2022-08-14T01:51:19.191Z,19.60
2022-08-14T01:54:01.603Z,19.63
2022-08-14T01:56:41.552Z,19.66
2022-08-14T01:59:21.918Z,19.66
2022-08-14T02:01:58.839Z,19.67
2022-08-14T02:04:54.840Z,19.69
2022-08-14T02:07:44.519Z,19.71
2022-08-14T02:10:26.269Z,19.72
2022-08-14T02:13:08.488Z,19.72
2022-08-14T02:15:41.454Z,19.73
2022-08-14T02:18:15.163Z,19.72
2022-08-14T02:20:51.264Z,19.70
2022-08-14T02:23:29.024Z,19.70
2022-08-14T02:26:24.847Z,19.68
2022-08-14T02:29:00.536Z,19.64
2022-08-14T02:31:42.149Z,19.63
2022-08-14T02:34:21.935Z,19.61
2022-08-14T02:37:03.638Z,19.60
2022-08-14T02:39:45.221Z,19.59
2022-08-14T02:42:23.631Z,19.59
2022-08-14T02:45:10.627Z,19.59
2022-08-14T02:47:47.488Z,19.57
2022-08-14T02:50:22.005Z,19.56
2022-08-14T02:53:03.324Z,19.55
2022-08-14T02:55:33.970Z,19.54
2022-08-14T02:58:06.157Z,19.54
2022-08-14T03:00:39.904Z,19.55
2022-08-14T03:03:12.206Z,19.52
2022-08-14T03:05:47.661Z,19.49
2022-08-14T03:08:21.520Z,19.48
2022-08-14T03:10:52.111Z,19.50
2022-08-14T03:13:24.703Z,19.49
2022-08-14T03:15:58.223Z,19.48
2022-08-14T03:18:32.814Z,19.46
2022-08-14T03:21:13.676Z,19.44
2022-08-14T03:23:45.781Z,19.40
2022-08-14T03:26:29.933Z,19.38
2022-08-14T03:29:01.565Z,19.36
2022-08-14T03:31:32.874Z,19.35
2022-08-14T03:34:05.255Z,19.35
2022-08-14T03:37:39.004Z,19.32
2022-08-14T03:39:31.906Z,19.32
2022-08-14T03:42:02.334Z,19.34
2022-08-14T03:45:19.644Z,19.35
2022-08-14T03:47:46.023Z,19.38
2022-08-14T03:50:27.560Z,19.39
2022-08-14T03:53:05.865Z,19.40
2022-08-14T03:55:38.793Z,19.43
2022-08-14T03:58:08.616Z,19.48
2022-08-14T04:00:42.997Z,19.53
2022-08-14T04:03:23.549Z,19.58
2022-08-14T04:05:57.429Z,19.64
2022-08-14T04:08:31.674Z,19.70
2022-08-14T04:11:07.834Z,19.73
2022-08-14T04:13:42.239Z,19.79
2022-08-14T04:16:19.162Z,19.87
2022-08-14T04:18:53.158Z,19.94
2022-08-14T04:21:26.191Z,20.03
2022-08-14T04:24:01.683Z,20.10
2022-08-14T04:26:42.303Z,20.17
2022-08-14T04:29:16.242Z,20.19
2022-08-14T04:32:57.772Z,20.18
2022-08-14T04:34:42.281Z,20.25
2022-08-14T04:37:40.257Z,20.31
2022-08-14T04:40:29.402Z,20.37
2022-08-14T04:43:17.666Z,20.45
2022-08-14T04:45:51.464Z,20.56
2022-08-14T04:48:38.854Z,20.62
2022-08-14T04:51:13.562Z,20.68
2022-08-14T04:53:46.812Z,20.70
2022-08-14T04:56:31.087Z,20.74
2022-08-14T04:59:10.679Z,20.82
2022-08-14T05:01:45.318Z,20.90
2022-08-14T05:04:20.914Z,21.03
2022-08-14T05:06:53.319Z,21.18
2022-08-14T05:09:29.214Z,21.28
2022-08-14T05:13:11.765Z,21.30
2022-08-14T05:14:55.786Z,21.38
2022-08-14T05:17:32.024Z,21.45
2022-08-14T05:21:54.402Z,21.53
2022-08-14T05:23:11.130Z,21.67
2022-08-14T05:25:41.700Z,21.80
2022-08-14T05:28:25.688Z,22.02
2022-08-14T05:31:08.241Z,22.18
2022-08-14T05:33:42.872Z,22.40
2022-08-14T05:36:27.161Z,22.62
2022-08-14T05:38:58.832Z,22.87
2022-08-14T05:41:52.441Z,23.02
2022-08-14T05:44:18.798Z,23.16
2022-08-14T05:46:49.613Z,23.31
2022-08-14T05:49:20.046Z,23.39
2022-08-14T05:51:52.009Z,23.47
2022-08-14T05:54:27.202Z,23.52
2022-08-14T05:56:58.513Z,23.54
2022-08-14T05:59:36.676Z,23.62
2022-08-14T06:02:11.789Z,23.68
2022-08-14T06:04:49.529Z,23.77
2022-08-14T06:07:18.730Z,23.91
2022-08-14T06:09:51.094Z,24.06
2022-08-14T06:12:31.590Z,24.20
2022-08-14T06:15:14.130Z,24.36
2022-08-14T06:17:46.115Z,24.48
2022-08-14T06:20:22.087Z,24.59
2022-08-14T06:22:53.001Z,24.73
2022-08-14T06:25:24.897Z,24.89
2022-08-14T06:27:55.690Z,25.00
2022-08-14T06:30:46.416Z,25.14
2022-08-14T06:33:18.780Z,25.29
2022-08-14T06:35:50.970Z,25.44
2022-08-14T06:38:24.010Z,25.57
2022-08-14T06:40:57.050Z,25.75
2022-08-14T06:43:31.864Z,25.89
2022-08-14T06:46:03.331Z,25.98
2022-08-14T06:48:37.157Z,26.08
2022-08-14T06:51:12.027Z,26.02
2022-08-14T06:53:41.341Z,25.96
2022-08-14T06:56:11.907Z,25.90
2022-08-14T06:58:42.887Z,25.85
2022-08-14T07:01:31.547Z,25.84
2022-08-14T07:04:23.721Z,26.05
2022-08-14T07:06:59.089Z,26.37
2022-08-14T07:09:44.372Z,26.60
2022-08-14T07:12:35.052Z,26.77
2022-08-14T07:15:11.701Z,26.81
2022-08-14T07:17:54.097Z,27.09
2022-08-14T07:20:31.341Z,27.48
2022-08-14T07:23:08.115Z,27.76
2022-08-14T07:25:42.262Z,28.20
2022-08-14T07:28:22.164Z,29.90
2022-08-14T07:31:05.232Z,31.38
2022-08-14T07:33:45.499Z,32.85
2022-08-14T07:36:27.545Z,34.78
2022-08-14T07:39:03.000Z,36.67
2022-08-14T07:41:42.658Z,37.27
2022-08-14T07:44:28.850Z,38.79
2022-08-14T07:47:05.202Z,40.35
2022-08-14T07:49:43.527Z,41.14
2022-08-14T07:52:14.167Z,41.83
2022-08-14T07:54:53.795Z,42.08
2022-08-14T07:57:25.162Z,41.93
2022-08-14T07:59:55.783Z,42.40
2022-08-14T08:02:29.549Z,41.86
2022-08-14T08:05:03.558Z,41.90
2022-08-14T08:07:40.811Z,41.97
2022-08-14T08:11:02.102Z,42.60
2022-08-14T08:13:29.346Z,43.20
2022-08-14T08:15:59.173Z,42.74
2022-08-14T08:18:38.214Z,43.56
2022-08-14T08:21:15.853Z,44.82
2022-08-14T08:23:55.239Z,45.82
2022-08-14T08:26:43.579Z,46.44
2022-08-14T08:29:30.204Z,46.98
2022-08-14T08:32:14.709Z,47.08
2022-08-14T08:34:51.942Z,46.70
2022-08-14T08:37:25.356Z,44.36
2022-08-14T08:40:06.509Z,42.61
2022-08-14T08:42:53.136Z,41.73
2022-08-14T08:45:27.775Z,41.74
2022-08-14T08:48:03.602Z,43.00
2022-08-14T08:50:53.282Z,44.12
2022-08-14T08:53:47.045Z,44.84
2022-08-14T08:57:21.630Z,45.37
2022-08-14T09:00:34.943Z,44.95
2022-08-14T09:03:27.594Z,44.51
2022-08-14T09:07:00.140Z,45.25
2022-08-14T09:10:34.055Z,45.63
2022-08-14T09:13:16.398Z,45.90
2022-08-14T09:16:18.424Z,46.23
2022-08-14T09:19:04.515Z,46.54
2022-08-14T09:21:46.798Z,46.59
2022-08-14T09:24:26.913Z,46.81
2022-08-14T09:27:41.374Z,46.93
2022-08-14T09:30:33.541Z,46.91
2022-08-14T09:33:25.472Z,47.05
2022-08-14T09:36:39.786Z,47.60
2022-08-14T09:40:25.814Z,47.48
2022-08-14T09:43:13.831Z,47.10
2022-08-14T09:46:04.329Z,45.92
2022-08-14T09:48:39.427Z,44.99
2022-08-14T09:51:25.508Z,43.85
2022-08-14T09:54:22.944Z,42.99
2022-08-14T09:56:57.420Z,42.98
2022-08-14T09:59:39.569Z,42.87
2022-08-14T10:02:31.781Z,42.74
2022-08-14T10:05:13.589Z,41.99
2022-08-14T10:07:53.843Z,41.49
2022-08-14T10:10:38.923Z,41.25
2022-08-14T10:13:43.230Z,42.16
2022-08-14T10:16:30.417Z,42.70
2022-08-14T10:19:28.383Z,42.89
2022-08-14T10:23:13.030Z,43.43
2022-08-14T10:24:55.742Z,42.85
2022-08-14T10:27:29.585Z,42.35
2022-08-14T10:30:02.455Z,42.42
2022-08-14T10:32:49.629Z,42.12
2022-08-14T10:35:27.715Z,41.52
2022-08-14T10:38:02.346Z,41.15
2022-08-14T10:40:44.742Z,41.29
2022-08-14T10:43:31.944Z,41.57
2022-08-14T10:47:38.041Z,41.31
2022-08-14T10:49:04.912Z,39.51
2022-08-14T10:51:39.722Z,37.90
2022-08-14T10:54:17.018Z,36.57
2022-08-14T10:57:38.471Z,35.80
2022-08-14T11:00:20.739Z,34.80
2022-08-14T11:03:19.704Z,34.31
2022-08-14T11:05:57.187Z,34.13
2022-08-14T11:08:34.781Z,33.88
2022-08-14T11:11:07.469Z,33.65
2022-08-14T11:13:44.524Z,33.35
2022-08-14T11:16:16.585Z,33.82
2022-08-14T11:18:55.956Z,34.59
2022-08-14T11:21:34.294Z,35.02
2022-08-14T11:24:55.159Z,35.02
2022-08-14T11:27:04.077Z,34.34
2022-08-14T11:30:00.380Z,34.10
2022-08-14T11:32:51.354Z,34.50
2022-08-14T11:35:37.003Z,34.76
2022-08-14T11:38:21.825Z,34.37
2022-08-14T11:40:52.493Z,34.10
2022-08-14T11:43:29.139Z,33.80
2022-08-14T11:46:03.650Z,33.41
2022-08-14T11:49:01.628Z,32.97
2022-08-14T11:51:52.885Z,32.50
2022-08-14T11:54:34.986Z,32.10
2022-08-14T11:57:06.413Z,31.71
2022-08-14T11:59:38.530Z,31.96
2022-08-14T12:03:01.630Z,32.95
2022-08-14T12:05:10.891Z,33.91
2022-08-14T12:07:50.416Z,34.49
2022-08-14T12:10:41.052Z,34.73
2022-08-14T12:13:22.587Z,35.03
2022-08-14T12:16:06.507Z,34.71
2022-08-14T12:18:45.855Z,34.66
2022-08-14T12:21:25.581Z,34.84
2022-08-14T12:24:08.479Z,34.92
2022-08-14T12:26:40.729Z,34.30
2022-08-14T12:29:16.726Z,33.54
2022-08-14T12:31:47.184Z,33.01
2022-08-14T12:34:20.518Z,32.52
2022-08-14T12:37:09.311Z,32.49
2022-08-14T12:39:40.278Z,33.16
2022-08-14T12:42:34.041Z,33.62
2022-08-14T12:45:04.905Z,34.30
2022-08-14T12:47:38.828Z,34.71
2022-08-14T12:50:21.733Z,34.50
2022-08-14T12:53:14.683Z,34.00
2022-08-14T12:56:22.545Z,33.52
2022-08-14T12:58:59.145Z,33.13
2022-08-14T13:01:59.324Z,32.84
2022-08-14T13:04:52.339Z,32.58
2022-08-14T13:07:26.829Z,32.41
2022-08-14T13:10:46.272Z,32.23
2022-08-14T13:13:15.673Z,32.30
2022-08-14T13:15:57.286Z,32.08
2022-08-14T13:18:31.337Z,31.95
2022-08-14T13:21:03.020Z,31.94
2022-08-14T13:23:37.370Z,31.96
2022-08-14T13:26:09.310Z,31.95
2022-08-14T13:29:02.072Z,31.85
2022-08-14T13:31:36.446Z,31.89
2022-08-14T13:34:06.662Z,31.94
2022-08-14T13:36:51.557Z,31.84
2022-08-14T13:39:30.246Z,31.62
2022-08-14T13:42:13.864Z,31.35
2022-08-14T13:44:45.611Z,30.84
2022-08-14T13:47:21.017Z,30.16
2022-08-14T13:49:57.539Z,29.50
2022-08-14T13:52:51.423Z,29.11
2022-08-14T13:55:31.566Z,28.75
2022-08-14T13:58:07.819Z,28.54
2022-08-14T14:00:59.942Z,28.37
2022-08-14T14:03:31.949Z,28.32
2022-08-14T14:06:03.878Z,28.31
2022-08-14T14:08:47.742Z,28.35
2022-08-14T14:11:25.282Z,28.44
2022-08-14T14:14:06.102Z,28.58
2022-08-14T14:16:47.514Z,28.74
2022-08-14T14:19:20.922Z,28.95
2022-08-14T14:21:55.797Z,29.36
2022-08-14T14:24:26.325Z,29.78
2022-08-14T14:27:30.080Z,30.13
2022-08-14T14:29:59.569Z,30.32
2022-08-14T14:32:32.334Z,30.43
2022-08-14T14:35:03.993Z,30.55
2022-08-14T14:37:37.902Z,30.71
2022-08-14T14:40:54.371Z,30.77
2022-08-14T14:43:11.867Z,30.58
2022-08-14T14:45:46.814Z,30.34
2022-08-14T14:48:28.406Z,29.85
2022-08-14T14:51:01.742Z,29.34
2022-08-14T14:53:39.225Z,28.75
2022-08-14T14:56:49.303Z,27.85
2022-08-14T14:59:01.562Z,27.01
2022-08-14T15:01:33.145Z,26.45
2022-08-14T15:04:08.071Z,25.96
2022-08-14T15:06:53.030Z,25.50
2022-08-14T15:09:23.856Z,25.16
2022-08-14T15:11:53.177Z,24.97
2022-08-14T15:14:54.677Z,24.74
2022-08-14T15:17:12.351Z,24.49
2022-08-14T15:19:42.576Z,24.33
2022-08-14T15:22:29.702Z,24.19
2022-08-14T15:25:01.134Z,24.06
2022-08-14T15:27:33.384Z,23.96
2022-08-14T15:30:06.894Z,23.89
2022-08-14T15:32:37.224Z,23.80
2022-08-14T15:35:08.512Z,23.67
2022-08-14T15:37:42.248Z,23.60
2022-08-14T15:40:16.215Z,23.53
2022-08-14T15:42:53.174Z,23.47
2022-08-14T15:45:24.312Z,23.48
2022-08-14T15:47:53.324Z,23.35
2022-08-14T15:50:29.555Z,23.21
2022-08-14T15:53:00.030Z,23.14
2022-08-14T15:55:31.364Z,23.05
2022-08-14T15:58:05.829Z,22.91
2022-08-14T16:00:55.984Z,22.87
2022-08-14T16:03:35.163Z,22.78
2022-08-14T16:06:15.591Z,22.71
2022-08-14T16:08:58.798Z,22.55
2022-08-14T16:11:32.693Z,22.38
2022-08-14T16:14:06.666Z,22.27
2022-08-14T16:16:51.431Z,22.19
2022-08-14T16:19:28.068Z,22.09
2022-08-14T16:22:57.367Z,22.00
2022-08-14T16:25:00.562Z,21.86
2022-08-14T16:27:40.991Z,21.72
2022-08-14T16:30:20.664Z,21.64
2022-08-14T16:32:59.344Z,21.56
2022-08-14T16:35:59.390Z,21.50
2022-08-14T16:38:46.387Z,21.43
2022-08-14T16:41:23.857Z,21.39
2022-08-14T16:44:02.365Z,21.37
2022-08-14T16:46:43.014Z,21.37
2022-08-14T16:49:18.794Z,21.34
2022-08-14T16:51:52.977Z,21.29
2022-08-14T16:54:35.085Z,21.27
2022-08-14T16:57:27.623Z,21.27
2022-08-14T17:00:07.241Z,21.30
2022-08-14T17:03:00.815Z,21.28
2022-08-14T17:05:43.299Z,21.32
2022-08-14T17:08:32.131Z,21.35
2022-08-14T17:11:10.760Z,21.34
2022-08-14T17:13:59.065Z,21.34
2022-08-14T17:16:38.764Z,21.38
2022-08-14T17:19:16.724Z,21.44
2022-08-14T17:21:51.454Z,21.50
2022-08-14T17:24:56.698Z,21.53
2022-08-14T17:27:18.172Z,21.60
2022-08-14T17:29:57.585Z,21.65
2022-08-14T17:32:55.485Z,21.75
2022-08-14T17:35:57.662Z,21.81
2022-08-14T17:38:39.535Z,21.87
2022-08-14T17:41:32.947Z,21.90
2022-08-14T17:44:33.851Z,21.79
2022-08-14T17:47:11.569Z,21.70
2022-08-14T17:49:51.792Z,21.66
2022-08-14T17:52:33.960Z,21.63
2022-08-14T17:55:12.751Z,21.61
2022-08-14T17:58:16.561Z,21.58
2022-08-14T18:01:04.692Z,21.57
2022-08-14T18:03:50.337Z,21.57
2022-08-14T18:06:39.431Z,21.62
2022-08-14T18:09:25.936Z,21.68
2022-08-14T18:12:03.882Z,21.72
2022-08-14T18:14:48.746Z,21.72
2022-08-14T18:17:23.047Z,21.68
2022-08-14T18:19:56.502Z,21.68
2022-08-14T18:22:32.110Z,21.74
2022-08-14T18:25:04.729Z,21.73
2022-08-14T18:27:51.600Z,21.71
2022-08-14T18:30:33.553Z,21.70
2022-08-14T18:33:22.882Z,21.70
2022-08-14T18:35:58.498Z,21.64
2022-08-14T18:38:46.215Z,21.58
2022-08-14T18:41:37.033Z,21.52
2022-08-14T18:44:10.634Z,21.38
2022-08-14T18:47:10.241Z,21.28
2022-08-14T18:49:55.659Z,21.20
2022-08-14T18:52:37.662Z,21.11
2022-08-14T18:55:20.953Z,21.00
2022-08-14T18:58:30.437Z,20.90
2022-08-14T19:01:06.217Z,20.83
2022-08-14T19:03:37.253Z,20.81
2022-08-14T19:06:10.753Z,20.75
2022-08-14T19:08:51.634Z,20.69
2022-08-14T19:11:33.237Z,20.62
2022-08-14T19:14:06.753Z,20.55
2022-08-14T19:16:42.787Z,20.48
2022-08-14T19:19:15.352Z,20.42
2022-08-14T19:22:00.009Z,20.42
2022-08-14T19:24:56.975Z,20.45
2022-08-14T19:27:37.720Z,20.48
2022-08-14T19:30:19.728Z,20.50
2022-08-14T19:32:57.046Z,20.47
2022-08-14T19:36:29.192Z,20.50
2022-08-14T19:39:04.331Z,20.53
2022-08-14T19:41:36.966Z,20.56
2022-08-14T19:44:12.582Z,20.61
2022-08-14T19:47:02.841Z,20.65
2022-08-14T19:50:24.593Z,20.71
2022-08-14T19:52:37.240Z,20.75
2022-08-14T19:55:17.581Z,20.77
2022-08-14T19:57:57.968Z,20.78
2022-08-14T20:00:31.079Z,20.80
2022-08-14T20:03:11.751Z,20.80
2022-08-14T20:05:45.891Z,20.85
2022-08-14T20:09:05.019Z,20.89
2022-08-14T20:12:00.406Z,20.91
2022-08-14T20:14:29.358Z,20.81
2022-08-14T20:17:05.979Z,20.69
2022-08-14T20:19:41.883Z,20.62
2022-08-14T20:22:35.049Z,20.59
2022-08-14T20:25:19.094Z,20.60
2022-08-14T20:27:59.671Z,20.66
2022-08-14T20:30:33.402Z,20.71
2022-08-14T20:33:10.592Z,20.76
2022-08-14T20:35:46.954Z,20.77
2022-08-14T20:38:30.759Z,20.77
2022-08-14T20:41:07.585Z,20.80
2022-08-14T20:44:00.936Z,20.81
2022-08-14T20:46:38.450Z,20.71
2022-08-14T20:49:20.246Z,20.55
2022-08-14T20:52:05.087Z,20.41
2022-08-14T20:54:53.357Z,20.30
2022-08-14T20:57:44.104Z,20.24
2022-08-14T21:00:56.486Z,20.23
2022-08-14T21:03:56.445Z,20.24
2022-08-14T21:07:23.361Z,20.26
2022-08-14T21:10:05.327Z,20.28
2022-08-14T21:12:35.272Z,20.17
2022-08-14T21:15:11.331Z,20.05
2022-08-14T21:17:46.326Z,20.04
2022-08-14T21:20:26.127Z,19.99
2022-08-14T21:23:00.516Z,20.01
2022-08-14T21:25:32.256Z,20.06
2022-08-14T21:28:09.056Z,20.03
2022-08-14T21:31:35.662Z,20.01
2022-08-14T21:34:31.553Z,20.04
2022-08-14T21:36:57.638Z,20.06
2022-08-14T21:39:32.159Z,20.07
2022-08-14T21:42:04.644Z,20.05
2022-08-14T21:44:42.601Z,20.04
2022-08-14T21:47:15.984Z,19.99
2022-08-14T21:49:48.363Z,19.89
2022-08-14T21:52:52.167Z,19.83
2022-08-14T21:55:23.272Z,19.77
2022-08-14T21:58:38.372Z,19.78
2022-08-14T22:00:46.887Z,19.83
2022-08-14T22:03:24.495Z,19.86
2022-08-14T22:05:57.228Z,19.89
2022-08-14T22:08:29.342Z,19.90
2022-08-14T22:11:00.861Z,19.89
2022-08-14T22:13:33.518Z,19.85
2022-08-14T22:17:01.755Z,19.80
2022-08-14T22:19:13.397Z,19.79
2022-08-14T22:21:46.621Z,19.80
2022-08-14T22:24:25.937Z,19.80
2022-08-14T22:27:08.584Z,19.74
2022-08-14T22:29:38.898Z,19.63
2022-08-14T22:32:11.268Z,19.52
2022-08-14T22:34:44.695Z,19.44
2022-08-14T22:37:17.777Z,19.39
2022-08-14T22:40:45.803Z,19.39
2022-08-14T22:42:39.244Z,19.36
2022-08-14T22:45:36.649Z,19.31
2022-08-14T22:48:12.867Z,19.28
2022-08-14T22:50:48.806Z,19.26
2022-08-14T22:53:18.984Z,19.21
2022-08-14T22:55:52.048Z,19.13
2022-08-14T22:58:31.716Z,19.08
2022-08-14T23:01:11.838Z,19.04
2022-08-14T23:03:45.571Z,19.05
2022-08-14T23:07:04.121Z,19.14
2022-08-14T23:09:36.285Z,19.25
2022-08-14T23:12:27.459Z,19.26
2022-08-14T23:15:04.651Z,19.33
2022-08-14T23:17:40.798Z,19.40
2022-08-14T23:20:18.727Z,19.42
2022-08-14T23:22:54.328Z,19.36
2022-08-14T23:25:58.032Z,19.33
2022-08-14T23:28:32.911Z,19.24
2022-08-14T23:31:15.098Z,19.09
2022-08-14T23:34:11.619Z,18.98
2022-08-14T23:36:53.053Z,18.92
2022-08-14T23:39:32.804Z,18.91
2022-08-14T23:42:08.747Z,18.94
2022-08-14T23:44:40.814Z,18.99
2022-08-14T23:47:26.741Z,19.03
2022-08-14T23:50:34.349Z,19.10
2022-08-14T23:53:07.232Z,19.12
2022-08-14T23:55:42.014Z,19.15
2022-08-14T23:58:29.148Z,19.19
